Time;durP1;ratioP1;P1;durP2;ratioP2;P2;SDS_P1;SDS_P2;PMS_P1;PMS_P2;Temp;Humidity;BMP_temperature;BMP_pressure;BME280_temperature;BME280_humidity;BME280_pressure;Samples;Min_cycle;Max_cycle;Signal;HPM_P1;HPM_P2
2022/10/10 00:02:13;;;;;;;7.53;5.70;;;15.90;99.90;;;;;;5096546;28;20111;-78
2022/10/10 00:04:39;;;;;;;10.25;5.80;;;15.90;99.90;;;;;;5115157;28;20011;-78
2022/10/10 00:07:05;;;;;;;10.73;5.68;;;15.80;99.90;;;;;;5112120;28;20015;-77
2022/10/10 00:09:30;;;;;;;8.60;5.35;;;15.90;99.90;;;;;;5096329;28;20028;-78
2022/10/10 00:11:56;;;;;;;10.65;5.47;;;15.90;99.90;;;;;;5109479;28;20095;-78
2022/10/10 00:14:22;;;;;;;14.73;5.22;;;15.80;99.90;;;;;;5097482;28;20031;-79
2022/10/10 00:16:48;;;;;;;13.25;5.22;;;15.80;99.90;;;;;;5097164;28;20024;-77
2022/10/10 00:19:14;;;;;;;8.75;5.20;;;15.80;99.90;;;;;;5098579;28;20084;-78
2022/10/10 00:21:40;;;;;;;8.82;5.78;;;15.80;99.90;;;;;;5104365;28;20027;-78
2022/10/10 00:24:07;;;;;;;13.82;5.55;;;15.80;99.90;;;;;;5112459;28;20028;-77
2022/10/10 00:26:33;;;;;;;11.50;5.85;;;15.90;99.90;;;;;;5097037;28;20016;-79
2022/10/10 00:28:59;;;;;;;8.43;5.60;;;15.80;99.90;;;;;;5096800;28;20495;-78
2022/10/10 00:31:24;;;;;;;13.65;6.35;;;15.90;99.90;;;;;;5112456;28;20111;-79
2022/10/10 00:33:50;;;;;;;9.35;5.72;;;15.80;99.90;;;;;;5096587;28;20114;-80
2022/10/10 00:36:19;;;;;;;13.02;6.47;;;15.80;99.90;;;;;;5098362;28;20024;-78
2022/10/10 00:38:45;;;;;;;11.82;6.10;;;15.80;99.90;;;;;;5095667;28;20119;-78
2022/10/10 00:41:11;;;;;;;12.05;7.45;;;15.80;99.90;;;;;;5096764;28;20051;-79
2022/10/10 00:43:37;;;;;;;12.10;6.57;;;15.80;99.90;;;;;;5097171;28;20016;-77
2022/10/10 00:46:03;;;;;;;8.40;5.63;;;15.90;99.90;;;;;;5096915;28;20052;-78
2022/10/10 00:48:42;;;;;;;13.30;6.25;;;15.90;99.90;;;;;;5112040;28;20017;-77
2022/10/10 00:51:13;;;;;;;11.50;6.85;;;16.00;99.90;;;;;;5096721;28;20031;-78
2022/10/10 00:53:47;;;;;;;10.60;5.47;;;16.00;99.90;;;;;;5096656;28;20024;-77
2022/10/10 00:56:16;;;;;;;11.23;6.13;;;15.90;99.90;;;;;;5096715;28;20023;-78
2022/10/10 00:58:47;;;;;;;12.90;6.50;;;15.90;99.90;;;;;;5096580;28;20032;-80
2022/10/10 01:01:13;;;;;;;13.48;5.90;;;15.90;99.90;;;;;;5112210;28;20024;-77
2022/10/10 01:03:39;;;;;;;8.93;5.97;;;15.90;99.90;;;;;;5096338;28;20023;-80
2022/10/10 01:06:05;;;;;;;8.95;5.70;;;15.90;99.90;;;;;;5096501;28;20095;-77
2022/10/10 01:08:31;;;;;;;12.35;6.05;;;15.80;99.90;;;;;;5096495;28;21197;-78
2022/10/10 01:11:19;;;;;;;12.93;5.70;;;15.80;99.90;;;;;;5098228;28;20036;-78
2022/10/10 01:13:51;;;;;;;12.68;6.28;;;15.80;99.90;;;;;;5096383;28;20028;-77
2022/10/10 01:16:36;;;;;;;16.58;6.15;;;15.80;99.90;;;;;;5095389;28;20034;-78
2022/10/10 01:19:11;;;;;;;9.40;5.85;;;15.80;99.90;;;;;;5096121;28;20411;-78
2022/10/10 01:21:44;;;;;;;14.52;5.80;;;15.80;99.90;;;;;;5116206;28;20031;-78
2022/10/10 01:24:32;;;;;;;9.35;5.80;;;15.80;99.90;;;;;;5101600;28;20563;-79
2022/10/10 01:26:58;;;;;;;11.48;6.20;;;15.80;99.90;;;;;;5098404;28;20036;-78
2022/10/10 01:29:35;;;;;;;13.50;6.20;;;15.80;99.90;;;;;;5100490;28;20032;-78
2022/10/10 01:32:14;;;;;;;12.73;6.80;;;15.80;99.90;;;;;;5105370;28;20468;-79
2022/10/10 01:34:59;;;;;;;13.35;6.85;;;15.80;99.90;;;;;;5099623;28;20024;-78
2022/10/10 01:37:44;;;;;;;8.13;6.18;;;15.80;99.90;;;;;;5100076;28;20069;-78
2022/10/10 01:40:25;;;;;;;10.82;7.40;;;15.80;99.90;;;;;;5101297;28;20035;-79
2022/10/10 01:42:55;;;;;;;8.57;5.75;;;15.80;99.90;;;;;;5099583;28;20044;-77
2022/10/10 01:45:22;;;;;;;14.57;7.10;;;15.80;99.90;;;;;;5100004;28;20036;-79
2022/10/10 01:47:49;;;;;;;14.20;7.20;;;15.80;99.90;;;;;;5099358;28;20254;-80
2022/10/10 01:50:18;;;;;;;9.07;6.55;;;15.70;99.90;;;;;;5115352;28;20016;-76
2022/10/10 01:53:04;;;;;;;18.75;7.65;;;15.70;99.90;;;;;;5115198;28;20028;-80
2022/10/10 01:55:56;;;;;;;14.15;6.97;;;15.80;99.90;;;;;;5091046;28;20028;-79
2022/10/10 01:58:54;;;;;;;14.00;7.13;;;15.70;99.90;;;;;;5108619;28;20487;-80
2022/10/10 02:01:38;;;;;;;16.38;7.15;;;15.60;99.90;;;;;;5098909;28;20036;-78
2022/10/10 02:04:23;;;;;;;12.18;7.20;;;15.60;99.90;;;;;;5113218;28;20123;-79
2022/10/10 02:07:14;;;;;;;13.45;7.53;;;15.70;99.90;;;;;;5099011;28;20020;-78
2022/10/10 02:09:41;;;;;;;;;;;15.60;99.90;;;;;;5115287;28;20024;-78
2022/10/10 02:12:09;;;;;;;16.58;7.88;;;15.60;99.90;;;;;;5145550;27;19907;-80
2022/10/10 02:14:50;;;;;;;12.63;7.93;;;15.50;99.90;;;;;;5119644;27;20547;-79
2022/10/10 02:17:16;;;;;;;14.48;8.80;;;15.50;99.90;;;;;;5102161;28;20071;-78
2022/10/10 02:19:48;;;;;;;11.95;8.30;;;15.50;99.90;;;;;;5099687;28;20027;-78
2022/10/10 02:22:14;;;;;;;14.77;8.90;;;15.60;99.90;;;;;;5114473;28;20028;-79
2022/10/10 02:24:41;;;;;;;15.52;8.88;;;15.60;99.90;;;;;;5099005;28;20066;-80
2022/10/10 02:27:18;;;;;;;17.20;9.43;;;15.60;99.90;;;;;;5101235;28;20024;-79
2022/10/10 02:29:47;;;;;;;10.85;8.20;;;15.60;99.90;;;;;;5106711;28;20020;-80
2022/10/10 02:32:25;;;;;;;11.88;8.20;;;15.60;99.90;;;;;;5098575;28;20048;-80
2022/10/10 02:34:54;;;;;;;14.52;9.85;;;15.60;99.90;;;;;;5117328;27;20111;-80
2022/10/10 02:37:21;;;;;;;15.98;9.73;;;15.60;99.90;;;;;;5098444;28;20081;-79
2022/10/10 02:39:55;;;;;;;14.00;9.18;;;15.60;99.90;;;;;;5114274;28;20103;-80
2022/10/10 02:42:22;;;;;;;13.60;8.95;;;15.60;99.90;;;;;;5114119;28;20028;-78
2022/10/10 02:44:49;;;;;;;16.33;9.55;;;15.60;99.90;;;;;;5103315;28;20016;-79
2022/10/10 02:47:15;;;;;;;12.10;9.05;;;15.50;99.90;;;;;;5097223;28;20055;-78
2022/10/10 02:49:41;;;;;;;16.65;8.43;;;15.60;99.90;;;;;;5096518;28;20024;-80
2022/10/10 02:52:07;;;;;;;13.57;9.38;;;15.60;99.90;;;;;;5098564;28;20028;-80
2022/10/10 02:54:33;;;;;;;20.20;9.73;;;15.50;99.90;;;;;;5098100;28;20016;-77
2022/10/10 02:56:59;;;;;;;16.33;9.95;;;15.50;99.90;;;;;;5098522;28;20498;-78
2022/10/10 02:59:25;;;;;;;15.93;9.60;;;15.50;99.90;;;;;;5117310;27;20119;-80
2022/10/10 03:01:50;;;;;;;19.52;10.23;;;15.50;99.90;;;;;;5098241;28;20028;-79
2022/10/10 03:04:16;;;;;;;14.13;9.25;;;15.50;99.90;;;;;;5097772;28;20016;-80
2022/10/10 03:06:42;;;;;;;17.55;10.15;;;15.50;99.90;;;;;;5112450;28;20103;-80
2022/10/10 03:09:08;;;;;;;14.73;9.73;;;15.40;99.90;;;;;;5097460;28;20047;-79
2022/10/10 03:11:34;;;;;;;16.15;10.02;;;15.50;99.90;;;;;;5097673;28;20051;-80
2022/10/10 03:14:00;;;;;;;18.27;10.30;;;15.40;99.90;;;;;;5097803;28;20039;-78
2022/10/10 03:16:26;;;;;;;16.27;10.73;;;15.40;99.90;;;;;;5096482;28;20028;-77
2022/10/10 03:18:51;;;;;;;11.68;10.05;;;15.40;99.90;;;;;;5100751;28;20498;-79
2022/10/10 03:21:17;;;;;;;14.77;11.27;;;15.30;99.90;;;;;;5116736;28;20024;-79
2022/10/10 03:23:43;;;;;;;14.23;10.88;;;15.50;99.90;;;;;;5109860;28;20031;-80
2022/10/10 03:26:09;;;;;;;18.48;10.93;;;15.40;99.90;;;;;;5097783;28;20024;-79
2022/10/10 03:28:38;;;;;;;16.45;10.30;;;15.40;99.90;;;;;;5110781;28;20026;-78
2022/10/10 03:31:04;;;;;;;18.02;11.38;;;15.40;99.90;;;;;;5113507;28;20035;-79
2022/10/10 03:33:30;;;;;;;13.30;9.35;;;15.50;99.90;;;;;;5097364;28;20066;-78
2022/10/10 03:35:56;;;;;;;18.77;10.70;;;15.40;99.90;;;;;;5103022;28;20023;-80
2022/10/10 03:38:22;;;;;;;21.30;11.13;;;15.40;99.90;;;;;;5101301;28;20032;-79
2022/10/10 03:40:48;;;;;;;12.07;9.27;;;15.40;99.90;;;;;;5096068;28;20016;-80
2022/10/10 03:43:14;;;;;;;13.18;9.85;;;15.40;99.90;;;;;;5116360;27;20542;-80
2022/10/10 03:45:46;;;;;;;16.17;10.63;;;15.40;99.90;;;;;;5097769;28;20095;-80
2022/10/10 03:48:13;;;;;;;12.18;10.23;;;15.40;99.90;;;;;;5096631;28;20016;-80
2022/10/10 03:50:38;;;;;;;15.18;9.07;;;15.40;99.90;;;;;;5097200;28;20024;-78
2022/10/10 03:53:05;;;;;;;15.68;9.80;;;15.40;99.90;;;;;;5099402;28;20035;-80
2022/10/10 03:55:31;;;;;;;20.80;10.35;;;15.50;99.90;;;;;;5096091;28;20115;-79
2022/10/10 03:57:57;;;;;;;12.25;9.38;;;15.50;99.90;;;;;;5097158;28;20054;-79
2022/10/10 04:00:23;;;;;;;14.20;10.23;;;15.50;99.90;;;;;;5112793;28;20024;-79
2022/10/10 04:02:49;;;;;;;16.13;10.55;;;15.50;99.90;;;;;;5112513;28;20534;-79
2022/10/10 04:05:15;;;;;;;13.63;8.57;;;15.50;99.90;;;;;;5107279;28;20028;-79
2022/10/10 04:07:41;;;;;;;16.02;10.75;;;15.40;99.90;;;;;;5111702;28;20046;-78
2022/10/10 04:10:08;;;;;;;14.95;9.38;;;15.40;99.90;;;;;;5104574;28;20079;-78
2022/10/10 04:12:34;;;;;;;13.70;9.18;;;15.40;99.90;;;;;;5100638;28;20016;-79
2022/10/10 04:15:00;;;;;;;12.35;8.52;;;15.40;99.90;;;;;;5098113;28;20074;-79
2022/10/10 04:17:26;;;;;;;17.67;9.38;;;15.40;99.90;;;;;;5112506;28;20031;-79
2022/10/10 04:19:51;;;;;;;14.18;9.18;;;15.30;99.90;;;;;;5112509;28;20052;-79
2022/10/10 04:22:18;;;;;;;10.43;8.05;;;15.40;99.90;;;;;;5105489;28;20024;-79
2022/10/10 04:24:44;;;;;;;11.43;9.07;;;15.40;99.90;;;;;;5097071;28;20035;-78
2022/10/10 04:27:10;;;;;;;10.65;8.60;;;15.30;99.90;;;;;;5097144;28;20021;-79
2022/10/10 04:29:36;;;;;;;10.88;8.02;;;15.30;99.90;;;;;;5112808;28;20016;-78
2022/10/10 04:32:02;;;;;;;15.20;8.82;;;15.30;99.90;;;;;;5096887;28;20073;-79
2022/10/10 04:34:28;;;;;;;10.45;8.88;;;15.30;99.90;;;;;;5095628;28;20024;-78
2022/10/10 04:36:54;;;;;;;14.07;9.35;;;15.40;99.90;;;;;;5096660;28;20041;-78
2022/10/10 04:39:19;;;;;;;14.10;8.73;;;15.40;99.90;;;;;;5114745;28;20035;-78
2022/10/10 04:41:49;;;;;;;11.25;8.48;;;15.40;99.90;;;;;;5096629;28;20023;-78
2022/10/10 04:44:16;;;;;;;11.07;8.27;;;15.40;99.90;;;;;;5112712;28;20054;-78
2022/10/10 04:46:42;;;;;;;11.98;8.23;;;15.30;99.90;;;;;;5096714;28;20122;-80
2022/10/10 04:49:08;;;;;;;12.43;8.65;;;15.30;99.90;;;;;;5096991;28;20047;-80
2022/10/10 04:51:33;;;;;;;12.32;8.80;;;15.30;99.90;;;;;;5112176;28;20024;-80
2022/10/10 04:53:59;;;;;;;12.63;8.57;;;15.30;99.90;;;;;;5112678;28;20021;-79
2022/10/10 04:56:26;;;;;;;13.02;9.60;;;15.20;99.90;;;;;;5096781;28;20039;-78
2022/10/10 04:58:52;;;;;;;19.60;9.43;;;15.20;99.90;;;;;;5104943;28;20055;-79
2022/10/10 05:01:18;;;;;;;14.13;8.57;;;15.30;99.90;;;;;;5100286;28;20024;-80
2022/10/10 05:03:44;;;;;;;12.43;7.93;;;15.30;99.90;;;;;;5100185;28;20008;-81
2022/10/10 05:06:09;;;;;;;12.07;8.93;;;15.30;99.90;;;;;;5095658;28;20020;-78
2022/10/10 05:08:35;;;;;;;14.73;8.55;;;15.30;99.90;;;;;;5100374;28;20024;-78
2022/10/10 05:11:01;;;;;;;15.98;8.20;;;15.30;99.90;;;;;;5100192;28;20048;-79
2022/10/10 05:13:27;;;;;;;15.75;8.60;;;15.30;99.90;;;;;;5117589;27;20027;-78
2022/10/10 05:15:53;;;;;;;16.42;8.25;;;15.30;99.90;;;;;;5100106;28;20024;-78
2022/10/10 05:18:20;;;;;;;14.82;8.80;;;15.30;99.90;;;;;;5100235;28;20028;-78
2022/10/10 05:20:46;;;;;;;19.95;9.25;;;15.30;99.90;;;;;;5100159;28;20397;-78
2022/10/10 05:23:16;;;;;;;18.63;9.68;;;15.30;99.90;;;;;;5116190;28;20016;-77
2022/10/10 05:25:48;;;;;;;13.65;9.55;;;15.30;99.90;;;;;;5099943;28;20039;-80
2022/10/10 05:28:14;;;;;;;19.15;9.40;;;15.30;99.90;;;;;;5100188;28;20412;-78
2022/10/10 05:30:39;;;;;;;22.80;9.40;;;15.30;99.90;;;;;;5099738;28;20032;-79
2022/10/10 05:33:05;;;;;;;10.70;9.48;;;15.30;99.90;;;;;;5107628;28;20445;-78
2022/10/10 05:35:31;;;;;;;18.35;9.73;;;15.30;99.90;;;;;;5107095;28;20403;-78
2022/10/10 05:37:57;;;;;;;18.13;10.02;;;15.30;99.90;;;;;;5102615;28;20069;-80
2022/10/10 05:40:23;;;;;;;15.13;9.90;;;15.30;99.90;;;;;;5114322;27;20553;-79
2022/10/10 05:42:49;;;;;;;18.05;11.38;;;15.40;99.90;;;;;;5102050;28;20016;-80
2022/10/10 05:45:15;;;;;;;15.38;10.23;;;15.40;99.90;;;;;;5099838;28;20028;-79
2022/10/10 05:47:41;;;;;;;23.05;11.20;;;15.40;99.90;;;;;;5105956;28;20022;-79
2022/10/10 05:50:27;;;;;;;25.25;11.80;;;15.30;99.90;;;;;;5091856;28;20021;-79
2022/10/10 05:52:53;;;;;;;14.88;10.60;;;15.30;99.90;;;;;;5098189;28;20023;-79
2022/10/10 05:55:19;;;;;;;17.92;11.13;;;15.40;99.90;;;;;;5099940;28;20028;-79
2022/10/10 05:57:45;;;;;;;20.20;11.60;;;15.60;99.90;;;;;;5101828;28;20415;-79
2022/10/10 06:00:11;;;;;;;13.95;11.13;;;15.70;99.90;;;;;;5099457;28;20036;-79
2022/10/10 06:02:37;;;;;;;24.45;11.88;;;15.70;99.90;;;;;;5099019;28;20012;-80
2022/10/10 06:05:03;;;;;;;16.25;10.45;;;15.70;99.90;;;;;;5099388;28;20027;-78
2022/10/10 06:07:29;;;;;;;14.43;11.15;;;15.80;99.90;;;;;;5114757;28;20051;-77
2022/10/10 06:09:55;;;;;;;16.67;10.43;;;15.80;99.90;;;;;;5098859;28;20048;-79
2022/10/10 06:12:21;;;;;;;22.70;11.52;;;15.80;99.90;;;;;;5099196;28;20039;-79
2022/10/10 06:14:47;;;;;;;21.17;10.43;;;15.80;99.90;;;;;;5099085;28;20024;-79
2022/10/10 06:17:12;;;;;;;17.05;9.65;;;15.80;99.90;;;;;;5099046;28;20024;-78
2022/10/10 06:19:38;;;;;;;14.65;9.10;;;15.90;99.90;;;;;;5114402;28;20028;-78
2022/10/10 06:22:04;;;;;;;20.65;10.70;;;15.90;99.90;;;;;;5114631;28;20020;-78
2022/10/10 06:24:30;;;;;;;12.98;9.13;;;15.90;99.90;;;;;;5098768;28;20035;-78
2022/10/10 06:26:56;;;;;;;16.58;9.15;;;16.00;99.90;;;;;;5114656;28;20013;-78
2022/10/10 06:29:22;;;;;;;16.38;8.55;;;16.00;99.90;;;;;;5114718;28;20031;-78
2022/10/10 06:31:48;;;;;;;23.40;9.23;;;16.00;99.90;;;;;;5114666;28;20016;-78
2022/10/10 06:34:14;;;;;;;10.90;8.32;;;16.10;99.90;;;;;;5098676;28;20052;-79
2022/10/10 06:36:39;;;;;;;21.83;9.73;;;16.10;99.90;;;;;;5114208;28;20388;-77
2022/10/10 06:39:05;;;;;;;17.27;8.57;;;16.10;99.90;;;;;;5099340;28;20119;-78
2022/10/10 06:41:31;;;;;;;21.15;9.13;;;16.20;99.90;;;;;;5125344;27;20035;-78
2022/10/10 06:43:57;;;;;;;17.00;8.30;;;16.30;99.90;;;;;;5112596;28;20020;-77
2022/10/10 06:46:23;;;;;;;13.02;8.05;;;16.30;99.90;;;;;;5101963;28;20016;-81
2022/10/10 06:48:49;;;;;;;18.13;8.48;;;16.40;99.90;;;;;;5091009;28;20046;-79
2022/10/10 06:51:16;;;;;;;15.43;6.72;;;16.50;99.90;;;;;;5117227;27;20535;-80
2022/10/10 06:53:43;;;;;;;16.85;7.00;;;16.50;99.90;;;;;;5098439;28;20380;-80
2022/10/10 06:56:19;;;;;;;13.73;7.90;;;16.60;99.90;;;;;;5113945;28;20087;-79
2022/10/10 06:58:47;;;;;;;13.90;6.55;;;16.70;99.90;;;;;;5107504;28;20016;-80
2022/10/10 07:01:16;;;;;;;12.60;7.25;;;16.70;99.90;;;;;;5099639;28;20023;-80
2022/10/10 07:03:42;;;;;;;13.50;7.03;;;16.80;99.90;;;;;;5106157;28;20020;-79
2022/10/10 07:06:10;;;;;;;9.18;5.82;;;16.90;99.90;;;;;;5117972;27;20024;-80
2022/10/10 07:08:36;;;;;;;17.98;6.53;;;16.90;99.90;;;;;;5098138;28;20020;-80
2022/10/10 07:11:03;;;;;;;12.73;6.15;;;17.00;99.90;;;;;;5125055;27;20047;-80
2022/10/10 07:13:29;;;;;;;15.30;7.13;;;17.10;99.90;;;;;;5111530;28;20053;-81
2022/10/10 07:15:55;;;;;;;14.77;6.95;;;17.10;99.90;;;;;;5098346;28;20032;-81
2022/10/10 07:18:21;;;;;;;14.30;6.97;;;17.20;99.90;;;;;;5097756;28;20062;-80
2022/10/10 07:20:48;;;;;;;8.88;6.28;;;17.30;99.90;;;;;;5111916;28;20038;-82
2022/10/10 07:23:14;;;;;;;14.23;7.32;;;17.40;99.90;;;;;;5116331;28;20023;-84
2022/10/10 07:25:41;;;;;;;21.60;6.53;;;17.50;99.90;;;;;;5115681;28;20392;-82
2022/10/10 07:28:08;;;;;;;13.52;6.82;;;17.50;99.90;;;;;;5113894;28;20032;-81
2022/10/10 07:30:42;;;;;;;8.60;5.95;;;17.50;99.90;;;;;;5112731;28;20095;-82
2022/10/10 07:33:09;;;;;;;8.93;5.53;;;17.50;99.90;;;;;;5109555;28;20031;-81
2022/10/10 07:35:35;;;;;;;13.73;6.00;;;17.50;99.90;;;;;;5115380;28;20099;-83
2022/10/10 07:38:01;;;;;;;15.60;6.53;;;17.50;99.90;;;;;;5113935;28;20127;-83
2022/10/10 07:40:28;;;;;;;18.13;6.50;;;17.60;99.90;;;;;;5113949;28;20119;-83
2022/10/10 07:42:53;;;;;;;8.93;5.68;;;17.70;99.90;;;;;;5101732;28;20039;-82
2022/10/10 07:45:19;;;;;;;14.32;5.90;;;17.80;99.90;;;;;;5101878;28;20020;-81
2022/10/10 07:47:45;;;;;;;24.40;5.85;;;17.80;99.90;;;;;;5094611;28;20013;-82
2022/10/10 07:50:12;;;;;;;15.13;5.82;;;17.80;99.90;;;;;;5097335;28;20020;-83
2022/10/10 07:52:39;;;;;;;13.18;6.18;;;17.80;99.90;;;;;;5116391;27;20035;-82
2022/10/10 07:55:05;;;;;;;19.65;6.45;;;17.80;99.90;;;;;;5097291;28;20032;-82
2022/10/10 07:57:34;;;;;;;14.18;5.65;;;17.80;99.90;;;;;;5098002;28;20027;-86
2022/10/10 08:00:08;;;;;;;11.55;5.75;;;17.70;99.90;;;;;;5131806;27;20012;-83
2022/10/10 08:02:34;;;;;;;11.25;5.60;;;17.80;99.90;;;;;;5106280;28;20032;-81
2022/10/10 08:04:59;;;;;;;11.60;5.40;;;17.80;99.90;;;;;;5113035;28;20023;-82
2022/10/10 08:07:26;;;;;;;12.05;5.53;;;17.90;99.90;;;;;;5110020;28;20031;-82
2022/10/10 08:09:52;;;;;;;11.38;5.57;;;18.00;99.90;;;;;;5096988;28;20032;-82
2022/10/10 08:12:18;;;;;;;16.17;6.55;;;18.10;99.90;;;;;;5097025;28;20024;-82
2022/10/10 08:14:44;;;;;;;20.88;5.45;;;18.20;99.90;;;;;;5116507;28;20023;-82
2022/10/10 08:17:10;;;;;;;14.80;6.13;;;18.40;99.90;;;;;;5100300;28;20537;-83
2022/10/10 08:19:36;;;;;;;20.50;5.95;;;18.60;99.90;;;;;;5096723;28;20020;-82
2022/10/10 08:22:01;;;;;;;16.75;5.85;;;18.70;99.90;;;;;;5088862;28;20029;-81
2022/10/10 08:24:27;;;;;;;14.20;5.68;;;18.80;99.90;;;;;;5097209;28;20016;-81
2022/10/10 08:26:53;;;;;;;15.93;5.65;;;18.80;99.90;;;;;;5112543;28;20024;-81
2022/10/10 08:29:19;;;;;;;10.43;5.00;;;18.90;99.90;;;;;;5097461;28;20020;-82
2022/10/10 08:31:45;;;;;;;12.60;5.55;;;18.90;99.90;;;;;;5125899;28;20031;-82
2022/10/10 08:34:11;;;;;;;10.05;5.90;;;19.00;99.90;;;;;;5104575;28;20058;-83
2022/10/10 08:36:37;;;;;;;19.98;5.65;;;19.00;99.90;;;;;;5104735;28;20441;-83
2022/10/10 08:39:03;;;;;;;17.90;6.20;;;18.90;99.90;;;;;;5125889;27;20024;-83
2022/10/10 08:41:35;;;;;;;17.48;5.78;;;18.80;99.90;;;;;;5116190;28;20396;-81
2022/10/10 08:44:23;;;;;;;17.33;5.20;;;18.70;99.90;;;;;;5099769;28;20050;-81
2022/10/10 08:47:26;;;;;;;11.95;5.00;;;18.80;99.90;;;;;;5120328;27;20016;-81
2022/10/10 08:50:01;;;;;;;17.98;5.07;;;18.90;99.90;;;;;;5119723;27;20031;-81
2022/10/10 08:52:37;;;;;;;12.35;4.80;;;19.00;99.90;;;;;;5102323;28;20028;-83
2022/10/10 08:55:11;;;;;;;9.10;5.00;;;19.10;99.90;;;;;;5099170;28;20115;-83
2022/10/10 08:57:48;;;;;;;11.82;5.13;;;19.20;99.90;;;;;;5098856;28;20038;-83
2022/10/10 09:00:21;;;;;;;13.70;4.72;;;19.30;99.90;;;;;;5118864;28;20074;-83
2022/10/10 09:02:49;;;;;;;14.05;5.50;;;19.40;99.90;;;;;;5118391;28;20016;-81
2022/10/10 09:05:19;;;;;;;9.82;4.65;;;19.60;99.90;;;;;;5104982;28;20043;-81
2022/10/10 09:08:04;;;;;;;8.17;3.90;;;19.60;99.90;;;;;;5103902;28;20388;-81
2022/10/10 09:11:07;;;;;;;9.95;4.70;;;19.70;99.90;;;;;;5099990;28;20044;-83
2022/10/10 09:13:38;;;;;;;14.05;5.18;;;19.70;99.90;;;;;;5100453;28;20035;-83
2022/10/10 09:16:17;;;;;;;12.35;4.80;;;19.80;99.90;;;;;;5085336;28;20020;-82
2022/10/10 09:18:52;;;;;;;22.65;5.18;;;19.90;99.90;;;;;;5087144;28;20027;-81
2022/10/10 09:21:31;;;;;;;10.98;4.70;;;19.90;99.90;;;;;;5097256;28;20027;-81
2022/10/10 09:24:05;;;;;;;11.52;4.28;;;20.00;99.90;;;;;;5104415;28;20175;-80
2022/10/10 09:26:39;;;;;;;14.98;5.00;;;20.10;99.90;;;;;;5115496;28;20154;-84
2022/10/10 09:29:11;;;;;;;13.13;4.10;;;20.20;99.90;;;;;;5111908;28;20048;-83
2022/10/10 09:32:08;;;;;;;7.35;4.60;;;20.30;99.90;;;;;;5115535;28;20115;-82
2022/10/10 09:34:37;;;;;;;8.77;3.90;;;20.40;99.90;;;;;;5097777;28;20484;-80
2022/10/10 09:37:08;;;;;;;9.88;4.70;;;20.40;99.90;;;;;;5115137;28;20028;-81
2022/10/10 09:39:43;;;;;;;9.63;4.38;;;20.60;99.90;;;;;;5115425;28;20052;-84
2022/10/10 09:42:20;;;;;;;10.50;3.85;;;20.70;99.90;;;;;;5115153;28;20458;-82
2022/10/10 09:44:45;;;;;;;8.93;3.95;;;20.80;99.90;;;;;;5098502;28;20016;-83
2022/10/10 09:47:14;;;;;;;7.65;3.92;;;20.80;99.90;;;;;;5099468;28;20388;-84
2022/10/10 09:49:41;;;;;;;20.65;4.68;;;20.70;99.90;;;;;;5099353;28;20468;-83
2022/10/10 09:52:27;;;;;;;9.45;3.67;;;20.70;99.90;;;;;;5115080;28;20030;-84
2022/10/10 09:55:01;;;;;;;20.08;5.80;;;20.70;99.90;;;;;;5110747;28;20050;-84
2022/10/10 09:57:34;;;;;;;10.30;3.42;;;20.70;99.90;;;;;;5127898;27;20032;-83
2022/10/10 10:00:19;;;;;;;11.68;4.38;;;20.70;99.90;;;;;;5108822;28;20480;-85
2022/10/10 10:03:10;;;;;;;11.35;3.85;;;20.80;99.90;;;;;;5093763;28;20027;-83
2022/10/10 10:05:36;;;;;;;18.63;4.25;;;20.80;99.90;;;;;;5092947;28;20044;-82
2022/10/10 10:08:02;;;;;;;10.80;3.55;;;20.90;99.90;;;;;;5099327;28;20016;-82
2022/10/10 10:10:32;;;;;;;14.68;4.15;;;20.90;99.90;;;;;;5097350;28;20081;-84
2022/10/10 10:12:58;;;;;;;9.55;4.00;;;21.00;99.90;;;;;;5098991;28;20384;-82
2022/10/10 10:15:28;;;;;;;13.32;3.55;;;21.00;99.90;;;;;;5113456;28;20019;-81
2022/10/10 10:18:12;;;;;;;14.23;4.10;;;21.10;99.90;;;;;;5107420;28;20030;-81
2022/10/10 10:20:44;;;;;;;15.43;4.63;;;21.20;99.90;;;;;;5115547;28;20047;-82
2022/10/10 10:23:33;;;;;;;8.63;3.70;;;21.20;99.90;;;;;;5106845;27;20035;-81
2022/10/10 10:26:23;;;;;;;7.15;3.78;;;21.20;99.90;;;;;;5124520;27;20019;-84
2022/10/10 10:28:51;;;;;;;6.68;3.28;;;21.30;99.90;;;;;;5098672;28;20388;-83
2022/10/10 10:31:30;;;;;;;8.30;3.33;;;21.30;99.90;;;;;;5110888;28;20031;-82
2022/10/10 10:34:16;;;;;;;11.40;4.35;;;21.40;99.90;;;;;;5100914;28;20099;-83
2022/10/10 10:37:03;;;;;;;12.10;3.75;;;21.40;99.90;;;;;;5079161;28;20028;-83
2022/10/10 10:39:58;;;;;;;15.52;4.38;;;21.60;99.90;;;;;;5097608;28;20495;-83
2022/10/10 10:42:37;;;;;;;17.33;3.85;;;21.70;99.90;;;;;;5110642;28;20035;-83
2022/10/10 10:45:19;;;;;;;11.48;3.20;;;21.70;99.90;;;;;;5096649;28;20024;-81
2022/10/10 10:48:16;;;;;;;13.98;3.33;;;21.80;99.90;;;;;;5106398;28;20383;-84
2022/10/10 10:51:03;;;;;;;10.50;3.38;;;21.90;99.90;;;;;;5085683;28;20032;-84
2022/10/10 10:53:37;;;;;;;11.57;3.30;;;21.90;99.90;;;;;;5117918;27;20059;-82
2022/10/10 10:56:22;;;;;;;7.65;2.53;;;21.90;99.90;;;;;;5104854;28;20055;-84
2022/10/10 10:59:12;;;;;;;12.90;4.25;;;21.90;99.90;;;;;;5106880;28;20038;-83
2022/10/10 11:02:01;;;;;;;10.27;3.40;;;21.90;99.90;;;;;;5102491;28;20033;-82
2022/10/10 11:05:04;;;;;;;11.77;3.42;;;21.80;99.90;;;;;;5098851;28;20016;-83
2022/10/10 11:07:59;;;;;;;11.57;3.55;;;21.90;99.90;;;;;;5096575;28;20095;-81
2022/10/10 11:10:53;;;;;;;9.13;3.38;;;21.90;99.90;;;;;;5098279;28;20048;-83
2022/10/10 11:13:37;;;;;;;5.68;2.63;;;21.90;99.90;;;;;;5088795;28;20024;-82
2022/10/10 11:16:21;;;;;;;12.57;3.15;;;22.00;99.90;;;;;;5109416;28;20028;-83
2022/10/10 11:19:11;;;;;;;7.75;3.55;;;22.00;99.90;;;;;;5112784;28;20032;-82
2022/10/10 11:21:44;;;;;;;8.45;2.92;;;22.10;99.90;;;;;;5133521;27;20028;-84
2022/10/10 11:24:19;;;;;;;6.00;2.58;;;22.20;99.90;;;;;;5108963;28;20433;-82
2022/10/10 11:26:52;;;;;;;7.55;2.88;;;22.30;99.90;;;;;;5131977;27;20430;-83
2022/10/10 11:29:23;;;;;;;10.43;3.03;;;22.30;99.90;;;;;;5112627;28;20058;-81
2022/10/10 11:32:13;;;;;;;10.40;3.00;;;22.40;99.90;;;;;;5101250;28;20027;-84
2022/10/10 11:35:20;;;;;;;9.88;3.00;;;22.40;99.90;;;;;;5102259;28;20023;-83
2022/10/10 11:37:55;;;;;;;13.85;2.88;;;22.40;99.90;;;;;;5097157;28;20024;-84
2022/10/10 11:41:08;;;;;;;12.88;3.95;;;22.50;99.90;;;;;;5093945;28;20500;-81
2022/10/10 11:43:46;;;;;;;7.72;2.95;;;22.50;99.90;;;;;;5060191;28;20032;-84
2022/10/10 11:46:34;;;;;;;11.80;2.88;;;22.60;99.90;;;;;;5111393;28;20084;-82
2022/10/10 11:49:12;;;;;;;9.50;3.10;;;22.60;99.90;;;;;;5098262;28;20020;-83
2022/10/10 11:52:12;;;;;;;8.48;3.10;;;22.60;99.90;;;;;;5109539;28;20027;-82
2022/10/10 11:55:02;;;;;;;5.50;3.30;;;22.60;99.90;;;;;;5116551;27;20032;-85
2022/10/10 11:57:43;;;;;;;14.23;3.53;;;22.70;99.90;;;;;;5117052;27;20028;-82
2022/10/10 12:00:13;;;;;;;10.68;2.75;;;22.60;99.90;;;;;;5114604;27;20077;-82
2022/10/10 12:02:41;;;;;;;11.93;3.00;;;22.70;99.90;;;;;;5062742;28;20369;-82
2022/10/10 12:05:22;;;;;;;13.18;3.13;;;22.80;99.90;;;;;;5087498;28;20042;-85
2022/10/10 12:07:56;;;;;;;10.32;3.15;;;22.90;99.90;;;;;;5096959;28;20025;-82
2022/10/10 12:10:37;;;;;;;9.43;2.90;;;22.80;99.90;;;;;;5090151;28;20496;-84
2022/10/10 12:13:15;;;;;;;8.82;3.17;;;22.80;99.90;;;;;;5112424;28;20024;-84
2022/10/10 12:15:42;;;;;;;14.70;3.20;;;22.70;99.90;;;;;;5097058;28;20031;-84
2022/10/10 12:18:38;;;;;;;10.77;3.78;;;22.60;99.90;;;;;;5097321;28;20023;-85
2022/10/10 12:21:15;;;;;;;7.10;2.97;;;22.50;99.90;;;;;;5106166;28;20043;-83
2022/10/10 12:23:47;;;;;;;9.30;2.45;;;22.60;99.90;;;;;;5108237;28;20628;-85
2022/10/10 12:26:20;;;;;;;10.35;3.13;;;22.70;99.90;;;;;;5087409;28;20024;-85
2022/10/10 12:29:03;;;;;;;7.50;3.40;;;22.80;99.90;;;;;;5094437;28;20017;-85
2022/10/10 12:31:37;;;;;;;8.13;3.15;;;22.80;99.90;;;;;;5095953;28;20073;-82
2022/10/10 12:34:10;;;;;;;11.50;3.15;;;22.90;99.90;;;;;;5101586;28;20031;-85
2022/10/10 12:36:39;;;;;;;7.97;3.28;;;23.10;99.90;;;;;;5112518;28;20170;-84
2022/10/10 12:39:06;;;;;;;8.18;3.17;;;23.10;99.90;;;;;;5120049;28;20451;-84
2022/10/10 12:41:41;;;;;;;10.18;3.00;;;23.10;99.90;;;;;;5117354;28;20028;-86
2022/10/10 12:44:43;;;;;;;7.88;3.00;;;23.20;99.90;;;;;;5096989;28;20028;-83
2022/10/10 12:47:15;;;;;;;7.75;3.05;;;23.20;99.90;;;;;;5130056;28;20906;-84
2022/10/10 12:50:02;;;;;;;13.48;3.38;;;23.30;99.90;;;;;;5110458;28;20100;-85
2022/10/10 12:52:35;;;;;;;12.77;3.53;;;23.30;99.90;;;;;;5099571;28;20131;-84
2022/10/10 12:55:23;;;;;;;8.93;2.63;;;23.50;99.90;;;;;;5103189;28;20031;-84
2022/10/10 12:57:53;;;;;;;11.55;3.55;;;23.70;99.90;;;;;;5107637;28;20024;-84
2022/10/10 13:00:23;;;;;;;8.77;2.50;;;23.80;99.90;;;;;;5106224;28;20080;-84
2022/10/10 13:03:00;;;;;;;7.45;3.08;;;23.90;99.90;;;;;;5098624;28;20024;-86